createdAt,value
2017-01-24T00:00:16.060Z,62.94
2017-01-24T00:00:56.580Z,62.28
2017-01-24T00:01:37.066Z,62.47
2017-01-24T00:02:17.609Z,62.94
2017-01-24T00:02:58.056Z,62.18
2017-01-24T00:03:38.555Z,62.94
2017-01-24T00:04:19.084Z,62.75
2017-01-24T00:04:59.587Z,62.47
2017-01-24T00:05:40.084Z,62.75
2017-01-24T00:06:20.575Z,62.09
2017-01-24T00:07:01.069Z,62.47
2017-01-24T00:07:41.558Z,62.18
2017-01-24T00:08:22.088Z,62.28
2017-01-24T00:09:02.598Z,61.9
2017-01-24T00:09:43.065Z,62.47
2017-01-24T00:10:23.575Z,62.37
2017-01-24T00:11:04.072Z,62.47
2017-01-24T00:11:44.522Z,62.09
2017-01-24T00:12:25.037Z,62.56
2017-01-24T00:13:05.532Z,62.18
2017-01-24T00:13:46.012Z,62.18
2017-01-24T00:14:26.526Z,62.37
2017-01-24T00:15:07.044Z,62.09
2017-01-24T00:15:47.535Z,62.28
2017-01-24T00:16:27.992Z,62.09
2017-01-24T00:17:08.517Z,62.28
2017-01-24T00:17:49.059Z,62.18
2017-01-24T00:18:29.559Z,61.99
2017-01-24T00:19:10.151Z,61.9
2017-01-24T00:19:50.627Z,61.8
2017-01-24T00:20:31.138Z,61.9
2017-01-24T00:21:11.649Z,62.66
2017-01-24T00:21:52.135Z,62.72
2017-01-24T00:22:32.615Z,63.1
2017-01-24T00:23:13.107Z,63.48
2017-01-24T00:23:53.618Z,63.76
2017-01-24T00:24:34.128Z,63.57
2017-01-24T00:25:14.623Z,63.42
2017-01-24T00:25:55.145Z,63.32
2017-01-24T00:26:35.626Z,63.04
2017-01-24T00:27:16.121Z,62.56
2017-01-24T00:27:56.568Z,62.85
2017-01-24T00:28:37.074Z,62.56
2017-01-24T00:29:17.570Z,62.18
2017-01-24T00:29:58.058Z,62.37
2017-01-24T00:30:38.543Z,61.71
2017-01-24T00:31:19.043Z,61.8
2017-01-24T00:31:59.545Z,61.61
2017-01-24T00:32:39.997Z,61.61
2017-01-24T00:33:20.482Z,61.8
2017-01-24T00:34:00.962Z,61.8
2017-01-24T00:34:41.449Z,61.8
2017-01-24T00:35:21.968Z,61.61
2017-01-24T00:36:02.439Z,61.52
2017-01-24T00:36:43.008Z,61.8
2017-01-24T00:37:23.449Z,62.28
2017-01-24T00:38:03.957Z,61.61
2017-01-24T00:38:44.442Z,61.61
2017-01-24T00:39:24.919Z,61.71
2017-01-24T00:40:05.414Z,62.18
2017-01-24T00:40:45.945Z,61.9
2017-01-24T00:41:26.468Z,61.71
2017-01-24T00:42:06.922Z,61.71
2017-01-24T00:42:47.455Z,62.09
2017-01-24T00:43:27.945Z,61.99
2017-01-24T00:44:08.450Z,61.99
2017-01-24T00:44:48.923Z,61.8
2017-01-24T00:45:29.435Z,61.8
2017-01-24T00:46:09.917Z,62.18
2017-01-24T00:46:50.433Z,61.8
2017-01-24T00:47:30.944Z,61.9
2017-01-24T00:48:11.483Z,61.71
2017-01-24T00:48:51.980Z,61.71
2017-01-24T00:49:32.481Z,61.71
2017-01-24T00:50:12.944Z,61.61
2017-01-24T00:50:53.439Z,61.33
2017-01-24T00:51:33.943Z,61.71
2017-01-24T00:52:14.430Z,61.71
2017-01-24T00:52:54.936Z,61.71
2017-01-24T00:53:35.443Z,61.24
2017-01-24T00:54:15.894Z,61.33
2017-01-24T00:54:56.391Z,61.24
2017-01-24T00:55:36.862Z,61.33
2017-01-24T00:56:17.361Z,61.05
2017-01-24T00:56:57.891Z,60.96
2017-01-24T00:57:38.387Z,60.77
2017-01-24T00:58:18.894Z,60.58
2017-01-24T00:58:59.384Z,60.67
2017-01-24T00:59:39.898Z,60.67
2017-01-24T01:00:20.412Z,60.38
2017-01-24T01:01:00.911Z,61.15
2017-01-24T01:01:41.380Z,60.67
2017-01-24T01:02:21.898Z,60.86
2017-01-24T01:03:02.408Z,60.96
2017-01-24T01:03:42.890Z,61.71
2017-01-24T01:05:41.117Z,61.05
2017-01-24T01:06:21.691Z,61.15
2017-01-24T01:07:02.232Z,61.05
2017-01-24T01:07:42.683Z,60.96
2017-01-24T01:08:23.169Z,60.96
2017-01-24T01:09:03.681Z,60.77
2017-01-24T01:09:44.161Z,61.15
2017-01-24T01:10:24.669Z,60.96
2017-01-24T01:11:05.155Z,60.67
2017-01-24T01:11:45.688Z,60.77
2017-01-24T01:12:26.186Z,59.91
2017-01-24T01:13:06.669Z,60
2017-01-24T01:13:47.154Z,60.19
2017-01-24T01:14:27.628Z,60.1
2017-01-24T01:15:08.096Z,60.1
2017-01-24T01:15:48.591Z,59.91
2017-01-24T01:16:29.093Z,59.72
2017-01-24T01:17:09.638Z,60.38
2017-01-24T01:17:50.108Z,59.91
2017-01-24T01:18:30.576Z,59.44
2017-01-24T01:19:11.069Z,59.16
2017-01-24T01:19:51.553Z,59.53
2017-01-24T01:20:32.046Z,59.44
2017-01-24T01:21:12.551Z,60.1
2017-01-24T01:21:53.046Z,60.1
2017-01-24T01:22:33.530Z,60.1
2017-01-24T01:23:13.999Z,60.19
2017-01-24T01:23:54.488Z,60.19
2017-01-24T01:24:34.944Z,60.1
2017-01-24T01:25:15.472Z,60.1
2017-01-24T01:25:55.939Z,60.19
2017-01-24T01:26:36.432Z,59.53
2017-01-24T01:27:16.952Z,60
2017-01-24T01:27:57.461Z,59.72
2017-01-24T01:28:37.955Z,59.91
2017-01-24T01:29:18.456Z,59.72
2017-01-24T01:29:58.955Z,60.29
2017-01-24T01:30:39.456Z,60.19
2017-01-24T01:31:19.946Z,60.19
2017-01-24T01:32:00.431Z,59.81
2017-01-24T01:32:40.969Z,60.19
2017-01-24T01:33:21.453Z,60.29
2017-01-24T01:34:01.948Z,60.38
2017-01-24T01:34:42.540Z,60.19
2017-01-24T01:35:22.971Z,59.81
2017-01-24T01:36:03.449Z,59.44
2017-01-24T01:36:43.981Z,59.25
2017-01-24T01:37:24.445Z,59.53
2017-01-24T01:38:04.943Z,59.34
2017-01-24T01:38:45.434Z,59.34
2017-01-24T01:39:25.910Z,59.34
2017-01-24T01:40:06.380Z,59.53
2017-01-24T01:40:46.853Z,59.63
2017-01-24T01:41:27.338Z,59.72
2017-01-24T01:42:07.857Z,59.44
2017-01-24T01:42:48.330Z,59.34
2017-01-24T01:43:28.841Z,59.81
2017-01-24T01:44:09.357Z,59.81
2017-01-24T01:44:49.846Z,59.34
2017-01-24T01:45:30.402Z,59.44
2017-01-24T01:46:10.808Z,59.34
2017-01-24T01:46:51.311Z,59.44
2017-01-24T01:47:31.748Z,59.34
2017-01-24T01:48:12.278Z,59.25
2017-01-24T01:48:52.768Z,58.97
2017-01-24T01:49:33.211Z,58.87
2017-01-24T01:50:13.766Z,59.16
2017-01-24T01:50:54.218Z,58.87
2017-01-24T01:51:34.841Z,59.25
2017-01-24T01:52:15.423Z,58.78
2017-01-24T01:52:55.815Z,59.06
2017-01-24T01:53:36.372Z,59.06
2017-01-24T01:54:16.855Z,58.78
2017-01-24T01:54:57.311Z,59.34
2017-01-24T01:55:37.830Z,59.34
2017-01-24T01:56:18.304Z,59.25
2017-01-24T01:56:58.756Z,60.19
2017-01-24T01:57:39.218Z,60.29
2017-01-24T01:58:19.698Z,60.19
2017-01-24T01:59:00.186Z,59.72
2017-01-24T01:59:40.701Z,59.63
2017-01-24T02:00:21.158Z,60.1
2017-01-24T02:01:01.708Z,59.25
2017-01-24T02:01:42.196Z,59.25
2017-01-24T02:02:22.664Z,59.34
2017-01-24T02:03:03.167Z,59.34
2017-01-24T02:03:43.655Z,59.34
2017-01-24T02:04:24.150Z,59.25
2017-01-24T02:05:04.640Z,59.16
2017-01-24T02:05:45.131Z,59.16
2017-01-24T02:06:25.591Z,59.16
2017-01-24T02:07:06.088Z,59.16
2017-01-24T02:07:46.590Z,59.16
2017-01-24T02:08:27.070Z,58.3
2017-01-24T02:09:07.597Z,58.87
2017-01-24T02:09:48.095Z,58.11
2017-01-24T02:10:28.611Z,58.21
2017-01-24T02:11:09.063Z,58.4
2017-01-24T02:11:49.649Z,58.3
2017-01-24T02:12:30.028Z,58.21
2017-01-24T02:13:10.542Z,58.49
2017-01-24T02:13:51.049Z,58.68
2017-01-24T02:14:31.567Z,59.25
2017-01-24T02:15:12.089Z,59.25
2017-01-24T02:15:53.058Z,58.3
2017-01-24T02:16:33.558Z,58.97
2017-01-24T02:17:14.036Z,58.87
2017-01-24T02:17:54.560Z,58.49
2017-01-24T02:18:35.027Z,58.02
2017-01-24T02:19:15.479Z,58.97
2017-01-24T02:19:55.962Z,59.06
2017-01-24T02:20:36.470Z,59.34
2017-01-24T02:21:16.984Z,59.06
2017-01-24T02:21:57.426Z,59.25
2017-01-24T02:22:37.942Z,59.16
2017-01-24T02:23:18.401Z,59.16
2017-01-24T02:23:58.947Z,59.16
2017-01-24T02:24:39.422Z,58.87
2017-01-24T02:25:19.897Z,58.59
2017-01-24T02:26:00.403Z,58.68
2017-01-24T02:26:40.851Z,58.59
2017-01-24T02:27:21.370Z,58.59
2017-01-24T02:28:01.885Z,59.25
2017-01-24T02:28:42.327Z,59.34
2017-01-24T02:29:22.858Z,59.63
2017-01-24T02:30:03.329Z,59.44
2017-01-24T02:30:43.846Z,59.34
2017-01-24T02:31:24.291Z,59.16
2017-01-24T02:32:04.782Z,59.06
2017-01-24T02:32:45.278Z,58.78
2017-01-24T02:33:25.802Z,58.4
2017-01-24T02:34:06.274Z,58.21
2017-01-24T02:34:46.768Z,58.59
2017-01-24T02:35:27.275Z,58.3
2017-01-24T02:36:07.758Z,59.25
2017-01-24T02:36:48.241Z,58.59
2017-01-24T02:37:28.770Z,59.06
2017-01-24T02:38:09.213Z,58.3
2017-01-24T02:38:49.726Z,58.59
2017-01-24T02:39:30.186Z,58.78
2017-01-24T02:40:10.689Z,58.68
2017-01-24T02:40:51.198Z,58.59
2017-01-24T02:41:31.698Z,59.34
2017-01-24T02:42:12.175Z,59.53
2017-01-24T02:42:52.672Z,59.44
2017-01-24T02:43:33.176Z,59.34
2017-01-24T02:44:13.696Z,59.44
2017-01-24T02:44:54.193Z,59.16
2017-01-24T02:45:34.687Z,59.34
2017-01-24T02:46:15.160Z,60.1
2017-01-24T02:46:55.685Z,60.29
2017-01-24T02:47:36.184Z,60.19
2017-01-24T02:48:16.632Z,60.19
2017-01-24T02:48:57.990Z,59.72
2017-01-24T02:49:38.508Z,59.25
2017-01-24T02:50:18.948Z,59.63
2017-01-24T02:50:59.464Z,59.06
2017-01-24T02:51:39.945Z,59.06
2017-01-24T02:52:20.491Z,59.16
2017-01-24T02:53:00.912Z,58.68
2017-01-24T02:53:41.409Z,58.68
2017-01-24T02:54:21.885Z,58.68
2017-01-24T02:55:02.398Z,58.87
2017-01-24T02:55:42.869Z,58.49
2017-01-24T02:56:23.330Z,59.16
2017-01-24T02:57:03.821Z,59.44
2017-01-24T02:57:44.510Z,59.44
2017-01-24T02:58:24.992Z,59.44
2017-01-24T02:59:05.491Z,59.44
2017-01-24T02:59:46.006Z,59.34
2017-01-24T03:00:26.497Z,59.06
2017-01-24T03:01:06.967Z,59.53
2017-01-24T03:01:47.469Z,58.78
2017-01-24T03:02:27.946Z,58.87
2017-01-24T03:03:08.415Z,58.87
2017-01-24T03:03:48.920Z,58.87
2017-01-24T03:04:29.478Z,58.97
2017-01-24T03:05:09.919Z,58.59
2017-01-24T03:05:50.437Z,58.49
2017-01-24T03:06:30.914Z,58.52
2017-01-24T03:07:11.368Z,58.59
2017-01-24T03:07:51.874Z,58.78
2017-01-24T03:08:32.371Z,59.16
2017-01-24T03:09:12.896Z,58.87
2017-01-24T03:09:53.410Z,59.44
2017-01-24T03:10:33.818Z,58.78
2017-01-24T03:11:14.360Z,59.16
2017-01-24T03:11:54.750Z,59.16
2017-01-24T03:12:35.398Z,59.16
2017-01-24T03:13:15.916Z,59.34
2017-01-24T03:13:56.383Z,59.06
2017-01-24T03:14:36.917Z,59.06
2017-01-24T03:15:17.347Z,59.06
2017-01-24T03:15:57.858Z,59.16
2017-01-24T03:16:38.354Z,59.16
2017-01-24T03:17:18.795Z,59.06
2017-01-24T03:17:59.292Z,58.87
2017-01-24T03:18:39.799Z,59.25
2017-01-24T03:19:20.254Z,59.81
2017-01-24T03:20:00.740Z,60.19
2017-01-24T03:20:41.229Z,60.38
2017-01-24T03:21:21.790Z,59.16
2017-01-24T03:22:02.183Z,59.25
2017-01-24T03:22:42.669Z,58.97
2017-01-24T03:23:23.204Z,58.97
2017-01-24T03:24:03.709Z,59.06
2017-01-24T03:24:44.172Z,58.87
2017-01-24T03:25:24.686Z,59.34
2017-01-24T03:26:05.142Z,59.44
2017-01-24T03:26:45.609Z,59.81
2017-01-24T03:27:26.099Z,60.19
2017-01-24T03:28:06.588Z,60.19
2017-01-24T03:28:47.082Z,60.19
2017-01-24T03:29:27.597Z,60.1
2017-01-24T03:30:08.047Z,60.19
2017-01-24T03:30:48.531Z,60.19
2017-01-24T03:31:29.055Z,60.19
2017-01-24T03:32:09.534Z,59.34
2017-01-24T03:32:50.023Z,59.34
2017-01-24T03:33:30.504Z,59.44
2017-01-24T03:34:11.023Z,59.25
2017-01-24T03:34:51.503Z,59.25
2017-01-24T03:35:32.120Z,59.81
2017-01-24T03:36:12.575Z,60.1
2017-01-24T03:36:53.022Z,60.38
2017-01-24T03:37:33.517Z,60.19
2017-01-24T03:38:14.010Z,60.29
2017-01-24T03:38:54.567Z,60.19
2017-01-24T03:39:34.968Z,59.53
2017-01-24T03:40:15.479Z,59.16
2017-01-24T03:40:56.021Z,59.16
2017-01-24T03:41:36.470Z,59.44
2017-01-24T03:42:16.990Z,59.16
2017-01-24T03:42:57.415Z,59.34
2017-01-24T03:43:37.908Z,59.44
2017-01-24T03:44:18.393Z,59.44
2017-01-24T03:44:58.911Z,59.34
2017-01-24T03:45:39.401Z,59.34
2017-01-24T03:46:19.866Z,59.34
2017-01-24T03:47:00.363Z,59.44
2017-01-24T03:47:40.803Z,59.44
2017-01-24T03:48:21.295Z,59.72
2017-01-24T03:49:01.795Z,59.81
2017-01-24T03:49:42.260Z,59.81
2017-01-24T03:50:22.750Z,59.63
2017-01-24T03:51:03.239Z,59.34
2017-01-24T03:51:43.704Z,59.44
2017-01-24T03:52:24.159Z,59.44
2017-01-24T03:53:04.735Z,59.34
2017-01-24T03:53:45.290Z,59.34
2017-01-24T03:54:25.728Z,59.34
2017-01-24T03:55:06.199Z,59.34
2017-01-24T03:55:46.698Z,59.53
2017-01-24T03:56:27.246Z,59.91
2017-01-24T03:57:07.740Z,59.91
2017-01-24T03:57:48.189Z,60.19
2017-01-24T03:58:28.706Z,60.19
2017-01-24T03:59:09.225Z,60.19
2017-01-24T03:59:49.701Z,60.19
2017-01-24T04:00:30.191Z,60.1
2017-01-24T04:01:10.677Z,60.19
2017-01-24T04:01:51.202Z,60.38
2017-01-24T04:02:31.740Z,60.19
2017-01-24T04:03:12.259Z,60.19
2017-01-24T04:03:52.754Z,60.29
2017-01-24T04:04:33.259Z,60.38
2017-01-24T04:05:13.714Z,60.1
2017-01-24T04:05:54.201Z,60.1
2017-01-24T04:06:34.701Z,60.1
2017-01-24T04:07:15.207Z,59.81
2017-01-24T04:07:55.701Z,60.1
2017-01-24T04:08:36.222Z,60.58
2017-01-24T04:09:16.710Z,60.58
2017-01-24T04:09:57.163Z,60.58
2017-01-24T04:10:37.683Z,60.58
2017-01-24T04:11:18.189Z,60.67
2017-01-24T04:11:58.700Z,60.38
2017-01-24T04:12:39.154Z,60.77
2017-01-24T04:13:19.663Z,60.29
2017-01-24T04:14:00.174Z,60.48
2017-01-24T04:14:40.708Z,60.38
2017-01-24T04:15:21.189Z,60.77
2017-01-24T04:16:01.713Z,60.86
2017-01-24T04:16:42.125Z,60.96
2017-01-24T04:17:22.663Z,61.33
2017-01-24T04:18:03.172Z,61.33
2017-01-24T04:18:43.673Z,61.8
2017-01-24T04:19:24.170Z,61.71
2017-01-24T04:20:04.682Z,61.99
2017-01-24T04:20:45.144Z,61.9
2017-01-24T04:21:25.624Z,61.99
2017-01-24T04:22:06.142Z,62.09
2017-01-24T04:22:46.609Z,62.18
2017-01-24T04:23:27.109Z,61.99
2017-01-24T04:24:07.583Z,61.99
2017-01-24T04:24:48.199Z,61.99
2017-01-24T04:25:28.675Z,61.9
2017-01-24T04:26:09.173Z,62.09
2017-01-24T04:26:49.642Z,61.9
2017-01-24T04:27:30.132Z,61.99
2017-01-24T04:28:10.653Z,61.9
2017-01-24T04:28:51.137Z,61.8
2017-01-24T04:29:31.610Z,61.8
2017-01-24T04:30:12.121Z,62.18
2017-01-24T04:30:52.665Z,62.37
2017-01-24T04:31:33.184Z,62.18
2017-01-24T04:32:13.653Z,62.66
2017-01-24T04:32:54.215Z,62.28
2017-01-24T04:33:34.689Z,62.09
2017-01-24T04:34:15.192Z,61.99
2017-01-24T04:34:55.694Z,62.66
2017-01-24T04:35:36.147Z,62.09
2017-01-24T04:36:16.645Z,62.75
2017-01-24T04:36:57.155Z,62.18
2017-01-24T04:37:37.643Z,62.75
2017-01-24T04:38:18.156Z,62.75
2017-01-24T04:38:58.602Z,62.85
2017-01-24T04:39:39.121Z,63.42
2017-01-24T04:40:19.630Z,63.23
2017-01-24T04:41:00.120Z,63.04
2017-01-24T04:41:40.617Z,63.23
2017-01-24T04:42:21.109Z,62.94
2017-01-24T04:43:01.639Z,63.32
2017-01-24T04:44:55.100Z,63.23
2017-01-24T04:45:35.584Z,63.23
2017-01-24T04:46:16.084Z,63.42
2017-01-24T04:46:56.552Z,63.04
2017-01-24T04:47:37.072Z,63.6
2017-01-24T04:48:17.551Z,63.51
2017-01-24T04:48:58.099Z,63.32
2017-01-24T04:49:38.786Z,63.42
2017-01-24T04:50:19.266Z,63.79
2017-01-24T04:50:59.785Z,63.51
2017-01-24T04:51:41.204Z,63.79
2017-01-24T04:52:20.815Z,63.79
2017-01-24T04:53:01.285Z,63.32
2017-01-24T04:53:41.804Z,63.89
2017-01-24T04:54:22.310Z,63.98
2017-01-24T04:55:02.774Z,63.7
2017-01-24T04:55:43.256Z,63.98
2017-01-24T04:56:23.785Z,63.6
2017-01-24T04:57:04.263Z,63.42
2017-01-24T04:57:44.764Z,63.79
2017-01-24T04:58:25.236Z,63.51
2017-01-24T04:59:05.720Z,63.42
2017-01-24T04:59:46.236Z,63.6
2017-01-24T05:00:26.710Z,63.42
2017-01-24T05:01:07.261Z,63.7
2017-01-24T05:01:47.745Z,63.79
2017-01-24T05:02:28.203Z,63.98
2017-01-24T05:03:08.733Z,63.98
2017-01-24T05:03:49.221Z,63.7
2017-01-24T05:04:29.769Z,63.6
2017-01-24T05:05:10.284Z,63.51
2017-01-24T05:05:50.740Z,63.6
2017-01-24T05:06:31.224Z,63.51
2017-01-24T05:07:11.797Z,63.23
2017-01-24T05:07:52.286Z,63.32
2017-01-24T05:08:32.803Z,63.23
2017-01-24T05:09:13.330Z,63.23
2017-01-24T05:09:53.851Z,63.51
2017-01-24T05:10:34.305Z,63.23
2017-01-24T05:11:14.769Z,63.42
2017-01-24T05:11:55.287Z,63.6
2017-01-24T05:12:35.740Z,63.6
2017-01-24T05:13:16.213Z,63.32
2017-01-24T05:13:56.755Z,63.6
2017-01-24T05:14:37.187Z,63.6
2017-01-24T05:15:17.705Z,63.32
2017-01-24T05:15:58.173Z,63.04
2017-01-24T05:16:38.633Z,62.94
2017-01-24T05:17:19.143Z,62.75
2017-01-24T05:17:59.647Z,62.75
2017-01-24T05:18:40.095Z,62.85
2017-01-24T05:19:20.568Z,63.32
2017-01-24T05:20:01.082Z,63.23
2017-01-24T05:20:41.602Z,62.85
2017-01-24T05:21:22.055Z,62.94
2017-01-24T05:22:02.527Z,63.23
2017-01-24T05:22:43.026Z,62.94
2017-01-24T05:23:23.506Z,63.32
2017-01-24T05:24:04.002Z,63.04
2017-01-24T05:24:44.535Z,63.32
2017-01-24T05:25:24.979Z,63.42
2017-01-24T05:26:05.511Z,63.42
2017-01-24T05:26:45.946Z,63.6
2017-01-24T05:27:26.431Z,63.04
2017-01-24T05:28:06.935Z,63.04
2017-01-24T05:28:47.415Z,63.51
2017-01-24T05:29:27.915Z,63.51
2017-01-24T05:30:08.445Z,63.6
2017-01-24T05:30:49.077Z,63.89
2017-01-24T05:31:29.380Z,63.51
2017-01-24T05:32:09.894Z,63.79
2017-01-24T05:32:50.519Z,63.42
2017-01-24T05:33:30.887Z,63.51
2017-01-24T05:34:11.346Z,63.7
2017-01-24T05:34:52.121Z,63.51
2017-01-24T05:35:32.738Z,63.98
2017-01-24T05:36:13.168Z,63.89
2017-01-24T05:36:53.653Z,63.89
2017-01-24T05:37:34.097Z,63.98
2017-01-24T05:38:14.612Z,63.6
2017-01-24T05:38:55.107Z,63.89
2017-01-24T05:39:35.606Z,64.36
2017-01-24T05:40:16.074Z,64.17
2017-01-24T05:40:56.582Z,63.79
2017-01-24T05:41:37.070Z,63.79
2017-01-24T05:42:17.570Z,64.36
2017-01-24T05:42:58.086Z,63.7
2017-01-24T05:43:38.546Z,63.42
2017-01-24T05:44:19.050Z,63.7
2017-01-24T05:44:59.520Z,63.98
2017-01-24T05:45:40.024Z,63.04
2017-01-24T05:46:20.526Z,63.51
2017-01-24T05:47:01.013Z,63.7
2017-01-24T05:47:41.507Z,63.7
2017-01-24T05:48:22.003Z,63.89
2017-01-24T05:49:02.476Z,63.32
2017-01-24T05:49:43.033Z,63.7
2017-01-24T05:50:23.487Z,64.17
2017-01-24T05:51:03.999Z,63.6
2017-01-24T05:51:44.476Z,63.04
2017-01-24T05:52:24.993Z,63.89
2017-01-24T05:53:05.499Z,63.42
2017-01-24T05:53:46.017Z,64.07
2017-01-24T05:54:26.534Z,64.07
2017-01-24T05:55:07.025Z,64.17
2017-01-24T05:55:47.569Z,64.07
2017-01-24T05:56:28.070Z,64.26
2017-01-24T05:57:08.593Z,64.07
2017-01-24T05:57:49.095Z,64.17
2017-01-24T05:58:29.587Z,63.89
2017-01-24T05:59:10.074Z,64.17
2017-01-24T05:59:50.558Z,64.17
2017-01-24T06:00:31.047Z,63.79
2017-01-24T06:01:11.572Z,64.36
2017-01-24T06:01:52.064Z,63.98
2017-01-24T06:02:32.561Z,64.26
2017-01-24T06:03:13.039Z,64.74
2017-01-24T06:03:53.562Z,63.98
2017-01-24T06:04:34.059Z,64.26
2017-01-24T06:05:14.501Z,64.07
2017-01-24T06:05:54.964Z,64.07
2017-01-24T06:06:35.521Z,64.26
2017-01-24T06:07:15.997Z,63.98
2017-01-24T06:07:56.507Z,63.98
2017-01-24T06:08:36.993Z,64.17
2017-01-24T06:09:17.498Z,64.74
2017-01-24T06:09:58.066Z,64.26
2017-01-24T06:10:38.499Z,64.74
2017-01-24T06:11:19.023Z,63.98
2017-01-24T06:11:59.466Z,63.79
2017-01-24T06:12:40.030Z,64.07
2017-01-24T06:13:20.591Z,64.64
2017-01-24T06:14:01.104Z,64.45
2017-01-24T06:14:41.630Z,63.98
2017-01-24T06:15:22.145Z,64.17
2017-01-24T06:16:02.598Z,64.55
2017-01-24T06:16:43.054Z,64.64
2017-01-24T06:17:23.600Z,64.83
2017-01-24T06:18:04.049Z,64.26
2017-01-24T06:18:44.559Z,64.26
2017-01-24T06:19:25.061Z,65.21
2017-01-24T06:20:06.218Z,65.02
2017-01-24T06:20:46.043Z,65.69
2017-01-24T06:21:26.537Z,65.69
2017-01-24T06:22:07.034Z,66.44
2017-01-24T06:22:47.565Z,66.53
2017-01-24T06:23:28.040Z,66.82
2017-01-24T06:24:08.480Z,67.11
2017-01-24T06:24:48.975Z,67.2
2017-01-24T06:25:29.461Z,67.39
2017-01-24T06:26:09.963Z,68.71
2017-01-24T06:26:50.450Z,69.28
2017-01-24T06:27:30.932Z,69.57
2017-01-24T06:28:11.454Z,70.79
2017-01-24T06:28:51.944Z,70.89
2017-01-24T06:29:32.439Z,71.65
2017-01-24T06:30:12.927Z,71.93
2017-01-24T06:30:53.451Z,71.84
2017-01-24T06:31:33.911Z,71.55
2017-01-24T06:32:14.434Z,71.55
2017-01-24T06:32:54.909Z,72.41
2017-01-24T06:33:35.433Z,72.31
2017-01-24T06:34:16.008Z,71.46
2017-01-24T06:34:56.433Z,71.46
2017-01-24T06:35:36.933Z,71.74
2017-01-24T06:36:17.433Z,70.23
2017-01-24T06:36:57.938Z,70.04
2017-01-24T06:37:38.435Z,71.74
2017-01-24T06:38:18.915Z,69.76
2017-01-24T06:38:59.394Z,70.23
2017-01-24T06:39:39.838Z,68.52
2017-01-24T06:40:20.376Z,67.11
2017-01-24T06:41:00.880Z,65.97
2017-01-24T06:41:41.394Z,66.35
2017-01-24T06:42:21.856Z,68.43
2017-01-24T06:43:02.366Z,70.23
2017-01-24T06:43:42.899Z,72.22
2017-01-24T06:44:23.434Z,73.26
2017-01-24T06:45:03.936Z,73.73
2017-01-24T06:45:44.402Z,73.26
2017-01-24T06:46:24.910Z,72.69
2017-01-24T06:47:05.377Z,71.84
2017-01-24T06:47:45.895Z,70.64
2017-01-24T06:48:26.381Z,70.26
2017-01-24T06:49:06.851Z,70.61
2017-01-24T06:49:47.350Z,70.61
2017-01-24T06:50:27.855Z,70.79
2017-01-24T06:51:08.381Z,70.23
2017-01-24T06:51:48.890Z,70.64
2017-01-24T06:52:29.366Z,71.46
2017-01-24T06:53:09.933Z,71.21
2017-01-24T06:53:50.476Z,69.6
2017-01-24T06:54:30.945Z,68.9
2017-01-24T06:55:11.434Z,68.65
2017-01-24T06:55:51.918Z,68.56
2017-01-24T06:56:32.483Z,69.38
2017-01-24T06:57:13.027Z,69.95
2017-01-24T06:57:53.523Z,70.55
2017-01-24T06:58:33.999Z,70.23
2017-01-24T06:59:14.516Z,70.98
2017-01-24T06:59:55.014Z,69.76
2017-01-24T07:00:35.507Z,69.32
2017-01-24T07:01:16.024Z,68.81
2017-01-24T07:01:56.527Z,70.04
2017-01-24T07:02:37.019Z,69.76
2017-01-24T07:03:17.561Z,71.55
2017-01-24T07:03:58.023Z,71.46
2017-01-24T07:04:38.532Z,71.93
2017-01-24T07:05:19.046Z,72.44
2017-01-24T07:05:59.451Z,74.11
2017-01-24T07:06:39.998Z,74.33
2017-01-24T07:07:20.489Z,73.45
2017-01-24T07:08:00.941Z,74.9
2017-01-24T07:08:41.466Z,74.05
2017-01-24T07:09:21.926Z,77.65
2017-01-24T07:10:02.424Z,78.88
2017-01-24T07:10:42.864Z,79.36
2017-01-24T07:11:23.436Z,81.34
2017-01-24T07:12:03.852Z,84.28
2017-01-24T07:12:44.318Z,85.8
2017-01-24T07:13:24.848Z,86.18
2017-01-24T07:14:05.329Z,87.4
2017-01-24T07:14:45.790Z,87.31
2017-01-24T07:15:26.282Z,89.11
2017-01-24T07:16:07.009Z,93.56
2017-01-24T07:16:47.504Z,94.98
2017-01-24T07:17:27.941Z,94.51
2017-01-24T07:18:08.494Z,95.31
2017-01-24T07:18:48.960Z,96.88
2017-01-24T07:19:29.477Z,97.92
2017-01-24T07:20:09.933Z,97.87
2017-01-24T07:25:09.529Z,89.3
2017-01-24T07:25:50.017Z,89.01
2017-01-24T07:26:30.502Z,88.35
2017-01-24T07:27:11.632Z,88.35
2017-01-24T07:27:51.528Z,88.17
2017-01-24T07:28:31.991Z,87.88
2017-01-24T07:36:55.964Z,89.68
2017-01-24T07:37:36.431Z,87.88
2017-01-24T07:38:16.961Z,86.65
2017-01-24T07:38:57.429Z,84.75
2017-01-24T07:39:37.945Z,83.05
2017-01-24T07:40:21.094Z,82.2
2017-01-24T07:41:02.245Z,81.53
2017-01-24T07:41:42.760Z,80.3
2017-01-24T07:43:08.674Z,80.4
2017-01-24T07:43:49.196Z,81.34
2017-01-24T07:44:29.722Z,82.57
2017-01-24T07:45:10.168Z,82.95
2017-01-24T07:45:50.659Z,81.53
2017-01-24T07:46:31.184Z,81.34
2017-01-24T07:47:11.660Z,81.44
2017-01-24T07:47:52.168Z,80.87
2017-01-24T07:48:32.679Z,81.63
2017-01-24T07:49:13.185Z,82.86
2017-01-24T07:49:53.657Z,85.23
2017-01-24T07:50:34.156Z,86.18
2017-01-24T07:51:14.632Z,85.51
2017-01-24T07:51:55.129Z,87.88
2017-01-24T07:52:35.654Z,88.64
2017-01-24T07:53:16.090Z,87.88
2017-01-24T07:53:56.647Z,89.39
2017-01-24T07:54:37.144Z,89.77
2017-01-24T07:55:17.563Z,87.4
2017-01-24T07:55:58.055Z,87.12
2017-01-24T07:56:38.558Z,89.58
2017-01-24T07:57:18.982Z,89.77
2017-01-24T07:57:59.520Z,87.78
2017-01-24T07:58:39.986Z,84.85
2017-01-24T07:59:20.505Z,83.71
2017-01-24T08:00:00.981Z,83.81
2017-01-24T08:00:41.431Z,80.68
2017-01-24T08:01:21.943Z,79.45
2017-01-24T08:02:02.420Z,81.34
2017-01-24T08:02:42.921Z,83.09
2017-01-24T08:03:23.410Z,84.7
2017-01-24T08:04:03.860Z,87.02
2017-01-24T08:04:44.360Z,87.54
2017-01-24T08:05:24.811Z,88.54
2017-01-24T08:06:05.321Z,91.62
2017-01-24T08:06:45.904Z,95.74
2017-01-24T08:07:26.400Z,96.64
2017-01-24T08:08:06.839Z,96.83
2017-01-24T08:08:47.330Z,96.36
2017-01-24T08:09:27.877Z,94.37
2017-01-24T08:10:08.359Z,91.9
2017-01-24T08:10:48.833Z,90.1
2017-01-24T08:11:29.384Z,89.15
2017-01-24T08:12:09.880Z,87.88
2017-01-24T08:12:50.443Z,87.4
2017-01-24T08:13:30.966Z,87.02
2017-01-24T08:14:11.435Z,86.65
2017-01-24T08:14:51.931Z,87.21
2017-01-24T08:15:32.405Z,85.23
2017-01-24T08:16:12.937Z,82.9
2017-01-24T08:16:53.411Z,81.63
2017-01-24T08:17:33.872Z,80.49
2017-01-24T08:18:14.403Z,78.13
2017-01-24T08:18:54.911Z,77.18
2017-01-24T08:19:35.417Z,76.89
2017-01-24T08:20:15.913Z,78.41
2017-01-24T08:20:56.373Z,78.59
2017-01-24T08:21:37.005Z,77.65
2017-01-24T08:22:17.437Z,77.56
2017-01-24T08:22:58.005Z,77.94
2017-01-24T08:23:38.482Z,76.14
2017-01-24T08:24:18.945Z,75.76
2017-01-24T08:24:59.455Z,73.77
2017-01-24T08:25:39.937Z,74.24
2017-01-24T08:26:20.469Z,75
2017-01-24T08:27:00.986Z,75
2017-01-24T08:27:42.022Z,75.28
2017-01-24T08:28:22.552Z,74.81
2017-01-24T08:29:03.020Z,74.52
2017-01-24T08:29:43.604Z,74.33
2017-01-24T08:30:24.104Z,74.15
2017-01-24T08:31:04.583Z,73.3
2017-01-24T08:31:45.103Z,73.01
2017-01-24T08:32:25.602Z,73.2
2017-01-24T08:33:06.187Z,73.68
2017-01-24T08:33:46.663Z,73.77
2017-01-24T08:34:27.201Z,73.77
2017-01-24T08:35:07.711Z,74.15
2017-01-24T08:35:48.183Z,74.15
2017-01-24T08:36:28.666Z,74.15
2017-01-24T08:37:09.179Z,73.49
2017-01-24T08:37:49.646Z,73.49
2017-01-24T08:38:30.151Z,73.2
2017-01-24T08:40:18.138Z,72.92
2017-01-24T08:40:58.679Z,72.92
2017-01-24T08:41:39.143Z,73.2
2017-01-24T08:42:19.644Z,73.58
2017-01-24T08:43:00.195Z,73.58
2017-01-24T08:43:40.678Z,73.77
2017-01-24T08:44:21.199Z,74.15
2017-01-24T08:45:01.680Z,73.71
2017-01-24T08:45:42.289Z,73.77
2017-01-24T08:46:22.701Z,75.09
2017-01-24T08:47:03.190Z,76.61
2017-01-24T08:47:43.671Z,77.75
2017-01-24T08:48:24.190Z,77.75
2017-01-24T08:49:04.652Z,78.92
2017-01-24T08:49:45.188Z,80.02
2017-01-24T08:50:25.675Z,81.76
2017-01-24T08:51:06.154Z,81.86
2017-01-24T08:51:46.651Z,83.09
2017-01-24T08:52:27.203Z,83.85
2017-01-24T08:53:07.670Z,83.18
2017-01-24T08:53:48.193Z,82.24
2017-01-24T08:54:28.701Z,83.75
2017-01-24T08:55:09.156Z,84.99
2017-01-24T08:55:49.666Z,87.64
2017-01-24T08:56:30.139Z,90.01
2017-01-24T08:57:10.639Z,92.47
2017-01-24T08:57:51.131Z,90.95
2017-01-24T08:58:31.654Z,92.38
2017-01-24T08:59:12.114Z,94.84
2017-01-24T08:59:52.603Z,94.18